LKMT/OSR METAR and TAF weather

Enter ICAO airport designator
Station Type Date Time Source
LKMT METAR 2019/12/06 14:00 UTC NOAA

LKMT 061400Z 22016KT 9000 BKN015 M00/M04 Q1018 NOSIG


Station Type Date Time Source
LKMT Decoded METAR 2019/12/06 14:00 UTC NOAA

Ostrava / Mosnov, Czech Republic (LKMT) 49-41N 018-07E 256M
Dec 06, 2019 - 09:00 AM EST / 2019.12.06 1400 UTC
Wind: from the SW (220 degrees) at 18 MPH (16 KT):0
Visibility: 5 mile(s):0
Sky conditions: mostly cloudy
Temperature: 32 F (0 C)
Windchill: 21 F (-6 C):1
Dew Point: 24 F (-4 C)
Relative Humidity: 74%
Pressure (altimeter): 30.06 in. Hg (1018 hPa)
ob: LKMT 061400Z 22016KT 9000 BKN015 M00/M04 Q1018 NOSIG
cycle: 14

Station Type Date Time Source
LKMT TAF 2019/12/06 12:06 UTC NOAA

TAF TAF LKMT 061100Z 0612/0718 22018KT 9999 BKN013
TEMPO 0612/0718 21022G32KT
TEMPO 0612/0700 SCT017
BECMG 0700/0702 BKN010
TEMPO 0702/0712 RASN BKN009
TEMPO 0712/0718 BKN017

Example: see airport list